sensor_id;sensor_type;location;lat;lon;timestamp;temperature;humidity
33699;DHT22;20032;52.436;13.312;2023-01-28T00:00:50;1.40;99.90
33699;DHT22;20032;52.436;13.312;2023-01-28T00:03:16;1.40;99.90
33699;DHT22;20032;52.436;13.312;2023-01-28T00:05:42;1.40;99.90
33699;DHT22;20032;52.436;13.312;2023-01-28T00:08:07;1.40;99.90
33699;DHT22;20032;52.436;13.312;2023-01-28T00:10:33;1.20;99.90
33699;DHT22;20032;52.436;13.312;2023-01-28T00:12:58;1.20;99.90
33699;DHT22;20032;52.436;13.312;2023-01-28T00:15:24;1.20;99.90
33699;DHT22;20032;52.436;13.312;2023-01-28T00:17:50;1.30;99.90
33699;DHT22;20032;52.436;13.312;2023-01-28T00:20:15;1.20;99.90
33699;DHT22;20032;52.436;13.312;2023-01-28T00:22:46;1.10;99.90
33699;DHT22;20032;52.436;13.312;2023-01-28T00:25:12;1.00;99.90
33699;DHT22;20032;52.436;13.312;2023-01-28T00:27:37;1.00;99.90
33699;DHT22;20032;52.436;13.312;2023-01-28T00:30:03;1.00;99.90
33699;DHT22;20032;52.436;13.312;2023-01-28T00:32:29;1.00;99.90
33699;DHT22;20032;52.436;13.312;2023-01-28T00:34:54;0.80;99.90
33699;DHT22;20032;52.436;13.312;2023-01-28T00:37:20;0.60;99.90
33699;DHT22;20032;52.436;13.312;2023-01-28T00:39:45;0.60;99.90
33699;DHT22;20032;52.436;13.312;2023-01-28T00:42:11;0.60;99.90
33699;DHT22;20032;52.436;13.312;2023-01-28T00:44:36;0.60;99.90
33699;DHT22;20032;52.436;13.312;2023-01-28T00:47:02;0.60;99.90
33699;DHT22;20032;52.436;13.312;2023-01-28T00:49:27;0.50;99.90
33699;DHT22;20032;52.436;13.312;2023-01-28T00:51:53;0.40;99.90
33699;DHT22;20032;52.436;13.312;2023-01-28T00:54:18;0.50;99.90
33699;DHT22;20032;52.436;13.312;2023-01-28T00:56:44;0.50;99.90
33699;DHT22;20032;52.436;13.312;2023-01-28T00:59:09;0.50;99.90
33699;DHT22;20032;52.436;13.312;2023-01-28T01:01:35;0.40;99.90
33699;DHT22;20032;52.436;13.312;2023-01-28T01:04:01;0.30;99.90
33699;DHT22;20032;52.436;13.312;2023-01-28T01:06:31;0.30;99.90
33699;DHT22;20032;52.436;13.312;2023-01-28T01:08:57;0.30;99.90
33699;DHT22;20032;52.436;13.312;2023-01-28T01:11:22;0.40;99.90
33699;DHT22;20032;52.436;13.312;2023-01-28T01:13:50;0.50;99.90
33699;DHT22;20032;52.436;13.312;2023-01-28T01:16:16;0.60;99.90
33699;DHT22;20032;52.436;13.312;2023-01-28T01:18:42;0.60;99.90
33699;DHT22;20032;52.436;13.312;2023-01-28T01:21:11;0.60;99.90
33699;DHT22;20032;52.436;13.312;2023-01-28T01:23:37;0.70;99.90
33699;DHT22;20032;52.436;13.312;2023-01-28T01:26:04;0.80;99.90
33699;DHT22;20032;52.436;13.312;2023-01-28T01:28:30;0.80;99.90
33699;DHT22;20032;52.436;13.312;2023-01-28T01:31:00;0.90;99.90
33699;DHT22;20032;52.436;13.312;2023-01-28T01:33:28;0.90;99.90
33699;DHT22;20032;52.436;13.312;2023-01-28T01:35:54;0.80;99.90
33699;DHT22;20032;52.436;13.312;2023-01-28T01:38:19;0.80;99.90
33699;DHT22;20032;52.436;13.312;2023-01-28T01:40:45;0.70;99.90
33699;DHT22;20032;52.436;13.312;2023-01-28T01:43:15;0.70;99.90
33699;DHT22;20032;52.436;13.312;2023-01-28T01:45:41;0.70;99.90
33699;DHT22;20032;52.436;13.312;2023-01-28T01:48:17;0.70;99.90
33699;DHT22;20032;52.436;13.312;2023-01-28T01:51:24;0.80;99.90
33699;DHT22;20032;52.436;13.312;2023-01-28T01:53:47;0.90;99.90
33699;DHT22;20032;52.436;13.312;2023-01-28T01:56:16;0.90;99.90
33699;DHT22;20032;52.436;13.312;2023-01-28T01:58:45;0.90;99.90
33699;DHT22;20032;52.436;13.312;2023-01-28T02:01:12;1.00;99.90
33699;DHT22;20032;52.436;13.312;2023-01-28T02:06:26;1.00;99.90
33699;DHT22;20032;52.436;13.312;2023-01-28T02:08:54;1.00;99.90
33699;DHT22;20032;52.436;13.312;2023-01-28T02:11:20;1.10;99.90
33699;DHT22;20032;52.436;13.312;2023-01-28T02:13:48;1.20;99.90
33699;DHT22;20032;52.436;13.312;2023-01-28T02:16:15;1.30;99.90
33699;DHT22;20032;52.436;13.312;2023-01-28T02:18:41;1.30;99.90
33699;DHT22;20032;52.436;13.312;2023-01-28T02:22:31;1.20;99.90
33699;DHT22;20032;52.436;13.312;2023-01-28T02:29:14;1.10;99.90
33699;DHT22;20032;52.436;13.312;2023-01-28T02:31:48;1.30;99.90
33699;DHT22;20032;52.436;13.312;2023-01-28T02:34:24;1.20;99.90
33699;DHT22;20032;52.436;13.312;2023-01-28T02:37:11;1.10;99.90
33699;DHT22;20032;52.436;13.312;2023-01-28T02:39:42;1.10;99.90
33699;DHT22;20032;52.436;13.312;2023-01-28T02:42:29;1.20;99.90
33699;DHT22;20032;52.436;13.312;2023-01-28T02:44:55;1.20;99.90
33699;DHT22;20032;52.436;13.312;2023-01-28T02:47:20;1.20;99.90
33699;DHT22;20032;52.436;13.312;2023-01-28T02:50:11;1.20;99.90
33699;DHT22;20032;52.436;13.312;2023-01-28T02:53:39;1.20;99.90
33699;DHT22;20032;52.436;13.312;2023-01-28T02:55:54;1.20;99.90
33699;DHT22;20032;52.436;13.312;2023-01-28T02:58:35;1.30;99.90
33699;DHT22;20032;52.436;13.312;2023-01-28T03:01:23;1.20;99.90
33699;DHT22;20032;52.436;13.312;2023-01-28T03:03:58;1.30;99.90
33699;DHT22;20032;52.436;13.312;2023-01-28T03:06:30;1.30;99.90
33699;DHT22;20032;52.436;13.312;2023-01-28T03:09:02;1.30;99.90
33699;DHT22;20032;52.436;13.312;2023-01-28T03:11:53;1.30;99.90
33699;DHT22;20032;52.436;13.312;2023-01-28T03:14:40;1.40;99.90
33699;DHT22;20032;52.436;13.312;2023-01-28T03:17:34;1.40;99.90
33699;DHT22;20032;52.436;13.312;2023-01-28T03:20:21;1.30;99.90
33699;DHT22;20032;52.436;13.312;2023-01-28T03:23:12;1.40;99.90
33699;DHT22;20032;52.436;13.312;2023-01-28T03:26:00;1.40;99.90
33699;DHT22;20032;52.436;13.312;2023-01-28T03:28:48;1.40;99.90
33699;DHT22;20032;52.436;13.312;2023-01-28T03:31:35;1.20;99.90
33699;DHT22;20032;52.436;13.312;2023-01-28T03:34:22;1.20;99.90
33699;DHT22;20032;52.436;13.312;2023-01-28T03:37:08;1.20;99.90
33699;DHT22;20032;52.436;13.312;2023-01-28T03:39:34;1.40;99.90
33699;DHT22;20032;52.436;13.312;2023-01-28T03:42:05;1.30;99.90
33699;DHT22;20032;52.436;13.312;2023-01-28T03:44:31;1.30;99.90
33699;DHT22;20032;52.436;13.312;2023-01-28T03:47:19;1.40;99.90
33699;DHT22;20032;52.436;13.312;2023-01-28T03:49:47;1.40;99.90
33699;DHT22;20032;52.436;13.312;2023-01-28T03:52:16;1.30;99.90
33699;DHT22;20032;52.436;13.312;2023-01-28T03:54:43;1.30;99.90
33699;DHT22;20032;52.436;13.312;2023-01-28T03:57:08;1.40;99.90
33699;DHT22;20032;52.436;13.312;2023-01-28T03:59:34;1.40;99.90
33699;DHT22;20032;52.436;13.312;2023-01-28T04:02:00;1.40;99.90
33699;DHT22;20032;52.436;13.312;2023-01-28T04:04:28;1.40;99.90
33699;DHT22;20032;52.436;13.312;2023-01-28T04:06:55;1.40;99.90
33699;DHT22;20032;52.436;13.312;2023-01-28T04:09:21;1.40;99.90
33699;DHT22;20032;52.436;13.312;2023-01-28T04:11:47;1.40;99.90
33699;DHT22;20032;52.436;13.312;2023-01-28T04:14:13;1.50;99.90
33699;DHT22;20032;52.436;13.312;2023-01-28T04:16:40;1.60;99.90
33699;DHT22;20032;52.436;13.312;2023-01-28T04:19:05;1.50;99.90
33699;DHT22;20032;52.436;13.312;2023-01-28T04:21:31;1.60;99.90
33699;DHT22;20032;52.436;13.312;2023-01-28T04:23:56;1.60;99.90
33699;DHT22;20032;52.436;13.312;2023-01-28T04:26:22;1.60;99.90
33699;DHT22;20032;52.436;13.312;2023-01-28T04:28:47;1.60;99.90
33699;DHT22;20032;52.436;13.312;2023-01-28T04:31:13;1.70;99.90
33699;DHT22;20032;52.436;13.312;2023-01-28T04:33:38;1.60;99.90
33699;DHT22;20032;52.436;13.312;2023-01-28T04:36:04;1.50;99.90
33699;DHT22;20032;52.436;13.312;2023-01-28T04:38:29;1.50;99.90
33699;DHT22;20032;52.436;13.312;2023-01-28T04:40:54;1.40;99.90
33699;DHT22;20032;52.436;13.312;2023-01-28T04:43:20;1.50;99.90
33699;DHT22;20032;52.436;13.312;2023-01-28T04:45:46;1.60;99.90
33699;DHT22;20032;52.436;13.312;2023-01-28T04:48:13;1.70;99.90
33699;DHT22;20032;52.436;13.312;2023-01-28T04:50:39;1.80;99.90
33699;DHT22;20032;52.436;13.312;2023-01-28T04:53:04;1.80;99.90
33699;DHT22;20032;52.436;13.312;2023-01-28T04:55:30;1.80;99.90
33699;DHT22;20032;52.436;13.312;2023-01-28T04:57:56;1.90;99.90
33699;DHT22;20032;52.436;13.312;2023-01-28T05:00:21;1.90;99.90
33699;DHT22;20032;52.436;13.312;2023-01-28T05:02:47;1.80;99.90
33699;DHT22;20032;52.436;13.312;2023-01-28T05:05:12;1.70;99.90
33699;DHT22;20032;52.436;13.312;2023-01-28T05:07:38;1.80;99.90
33699;DHT22;20032;52.436;13.312;2023-01-28T05:10:04;1.80;99.90
33699;DHT22;20032;52.436;13.312;2023-01-28T05:12:29;1.70;99.90
33699;DHT22;20032;52.436;13.312;2023-01-28T05:14:57;1.70;99.90
33699;DHT22;20032;52.436;13.312;2023-01-28T05:17:25;1.80;99.90
33699;DHT22;20032;52.436;13.312;2023-01-28T05:19:50;1.70;99.90
33699;DHT22;20032;52.436;13.312;2023-01-28T05:22:16;1.70;99.90
33699;DHT22;20032;52.436;13.312;2023-01-28T05:24:41;1.80;99.90
33699;DHT22;20032;52.436;13.312;2023-01-28T05:27:07;1.80;99.90
33699;DHT22;20032;52.436;13.312;2023-01-28T05:29:32;1.80;99.90
33699;DHT22;20032;52.436;13.312;2023-01-28T05:31:58;1.80;99.90
33699;DHT22;20032;52.436;13.312;2023-01-28T05:34:23;1.90;99.90
33699;DHT22;20032;52.436;13.312;2023-01-28T05:36:49;2.00;99.90
33699;DHT22;20032;52.436;13.312;2023-01-28T05:39:14;2.00;99.90
33699;DHT22;20032;52.436;13.312;2023-01-28T05:41:39;2.00;99.90
33699;DHT22;20032;52.436;13.312;2023-01-28T05:44:05;2.00;99.90
33699;DHT22;20032;52.436;13.312;2023-01-28T05:46:30;1.90;99.90
33699;DHT22;20032;52.436;13.312;2023-01-28T05:48:56;1.80;99.90
33699;DHT22;20032;52.436;13.312;2023-01-28T05:51:21;1.80;99.90
33699;DHT22;20032;52.436;13.312;2023-01-28T05:53:47;1.90;99.90
33699;DHT22;20032;52.436;13.312;2023-01-28T05:56:12;1.90;99.90
33699;DHT22;20032;52.436;13.312;2023-01-28T05:58:38;1.80;99.90
33699;DHT22;20032;52.436;13.312;2023-01-28T06:01:03;1.90;99.90
33699;DHT22;20032;52.436;13.312;2023-01-28T06:03:29;1.80;99.90
33699;DHT22;20032;52.436;13.312;2023-01-28T06:05:54;1.90;99.90
33699;DHT22;20032;52.436;13.312;2023-01-28T06:08:20;1.90;99.90
33699;DHT22;20032;52.436;13.312;2023-01-28T06:10:45;1.80;99.90
33699;DHT22;20032;52.436;13.312;2023-01-28T06:13:11;1.90;99.90
33699;DHT22;20032;52.436;13.312;2023-01-28T06:15:36;1.90;99.90
33699;DHT22;20032;52.436;13.312;2023-01-28T06:18:02;1.90;99.90
33699;DHT22;20032;52.436;13.312;2023-01-28T06:20:27;2.00;99.90
33699;DHT22;20032;52.436;13.312;2023-01-28T06:22:53;1.90;99.90
33699;DHT22;20032;52.436;13.312;2023-01-28T06:25:18;2.00;99.90
33699;DHT22;20032;52.436;13.312;2023-01-28T06:27:44;2.10;99.90
33699;DHT22;20032;52.436;13.312;2023-01-28T06:30:10;2.10;99.90
33699;DHT22;20032;52.436;13.312;2023-01-28T06:32:36;2.10;99.90
33699;DHT22;20032;52.436;13.312;2023-01-28T06:35:02;2.10;99.90
33699;DHT22;20032;52.436;13.312;2023-01-28T06:37:28;2.20;99.90
33699;DHT22;20032;52.436;13.312;2023-01-28T06:39:53;2.20;99.90
33699;DHT22;20032;52.436;13.312;2023-01-28T06:42:18;2.20;99.90
33699;DHT22;20032;52.436;13.312;2023-01-28T06:44:44;2.20;99.90
33699;DHT22;20032;52.436;13.312;2023-01-28T06:47:09;2.20;99.90
33699;DHT22;20032;52.436;13.312;2023-01-28T06:49:36;2.20;99.90
33699;DHT22;20032;52.436;13.312;2023-01-28T06:52:01;2.20;99.90
33699;DHT22;20032;52.436;13.312;2023-01-28T06:54:27;2.20;99.90
33699;DHT22;20032;52.436;13.312;2023-01-28T06:56:52;2.30;99.90
33699;DHT22;20032;52.436;13.312;2023-01-28T06:59:18;2.30;99.90
33699;DHT22;20032;52.436;13.312;2023-01-28T07:01:43;2.30;99.90
33699;DHT22;20032;52.436;13.312;2023-01-28T07:04:09;2.20;99.90
33699;DHT22;20032;52.436;13.312;2023-01-28T07:06:35;2.10;99.90
33699;DHT22;20032;52.436;13.312;2023-01-28T07:09:00;2.10;99.90
33699;DHT22;20032;52.436;13.312;2023-01-28T07:11:26;2.10;99.90
33699;DHT22;20032;52.436;13.312;2023-01-28T07:13:52;2.20;99.90
33699;DHT22;20032;52.436;13.312;2023-01-28T07:16:17;2.10;99.90
33699;DHT22;20032;52.436;13.312;2023-01-28T07:18:43;2.10;99.90
33699;DHT22;20032;52.436;13.312;2023-01-28T07:21:08;2.00;99.90
33699;DHT22;20032;52.436;13.312;2023-01-28T07:23:34;2.00;99.90
33699;DHT22;20032;52.436;13.312;2023-01-28T07:26:00;2.00;99.90
33699;DHT22;20032;52.436;13.312;2023-01-28T07:28:26;2.00;99.90
33699;DHT22;20032;52.436;13.312;2023-01-28T07:30:52;2.00;99.90
33699;DHT22;20032;52.436;13.312;2023-01-28T07:33:17;2.00;99.90
33699;DHT22;20032;52.436;13.312;2023-01-28T07:35:43;2.00;99.90
33699;DHT22;20032;52.436;13.312;2023-01-28T07:38:09;2.00;99.90
33699;DHT22;20032;52.436;13.312;2023-01-28T07:40:34;2.10;99.90
33699;DHT22;20032;52.436;13.312;2023-01-28T07:43:00;2.10;99.90
33699;DHT22;20032;52.436;13.312;2023-01-28T07:45:25;2.10;99.90
33699;DHT22;20032;52.436;13.312;2023-01-28T07:47:54;2.10;99.90
33699;DHT22;20032;52.436;13.312;2023-01-28T07:50:20;2.10;99.90
33699;DHT22;20032;52.436;13.312;2023-01-28T07:52:45;2.10;99.90
33699;DHT22;20032;52.436;13.312;2023-01-28T07:55:11;2.10;99.90
33699;DHT22;20032;52.436;13.312;2023-01-28T07:57:49;2.10;99.90
33699;DHT22;20032;52.436;13.312;2023-01-28T08:00:15;2.10;99.90
33699;DHT22;20032;52.436;13.312;2023-01-28T08:02:40;2.20;99.90
33699;DHT22;20032;52.436;13.312;2023-01-28T08:05:09;2.20;99.90
33699;DHT22;20032;52.436;13.312;2023-01-28T08:07:34;2.20;99.90
33699;DHT22;20032;52.436;13.312;2023-01-28T08:10:00;2.20;99.90
33699;DHT22;20032;52.436;13.312;2023-01-28T08:12:25;2.10;99.90
33699;DHT22;20032;52.436;13.312;2023-01-28T08:14:51;2.10;99.90
33699;DHT22;20032;52.436;13.312;2023-01-28T08:17:16;2.10;99.90
33699;DHT22;20032;52.436;13.312;2023-01-28T08:19:41;2.20;99.90
33699;DHT22;20032;52.436;13.312;2023-01-28T08:22:07;2.20;99.90
33699;DHT22;20032;52.436;13.312;2023-01-28T08:24:32;2.20;99.90
33699;DHT22;20032;52.436;13.312;2023-01-28T08:26:58;2.30;99.90
33699;DHT22;20032;52.436;13.312;2023-01-28T08:29:23;2.30;99.90
33699;DHT22;20032;52.436;13.312;2023-01-28T08:31:49;2.30;99.90
33699;DHT22;20032;52.436;13.312;2023-01-28T08:34:14;2.30;99.90
33699;DHT22;20032;52.436;13.312;2023-01-28T08:36:39;2.30;99.90
33699;DHT22;20032;52.436;13.312;2023-01-28T08:39:05;2.30;99.90
33699;DHT22;20032;52.436;13.312;2023-01-28T08:41:30;2.30;99.90
33699;DHT22;20032;52.436;13.312;2023-01-28T08:43:56;2.30;99.90
33699;DHT22;20032;52.436;13.312;2023-01-28T08:46:22;2.40;99.90
33699;DHT22;20032;52.436;13.312;2023-01-28T08:48:49;2.20;99.90
33699;DHT22;20032;52.436;13.312;2023-01-28T08:51:14;2.20;99.90
33699;DHT22;20032;52.436;13.312;2023-01-28T08:53:40;2.30;99.90
33699;DHT22;20032;52.436;13.312;2023-01-28T08:56:05;2.30;99.90
33699;DHT22;20032;52.436;13.312;2023-01-28T08:58:31;2.30;99.90
33699;DHT22;20032;52.436;13.312;2023-01-28T09:00:56;2.50;99.90
33699;DHT22;20032;52.436;13.312;2023-01-28T09:03:22;2.40;99.90
33699;DHT22;20032;52.436;13.312;2023-01-28T09:05:48;2.50;99.90
33699;DHT22;20032;52.436;13.312;2023-01-28T09:08:14;2.50;99.90
33699;DHT22;20032;52.436;13.312;2023-01-28T09:10:40;2.50;99.90
33699;DHT22;20032;52.436;13.312;2023-01-28T09:13:08;2.50;99.90
33699;DHT22;20032;52.436;13.312;2023-01-28T09:15:34;2.50;99.90
33699;DHT22;20032;52.436;13.312;2023-01-28T09:18:00;2.50;99.90
33699;DHT22;20032;52.436;13.312;2023-01-28T09:20:25;2.50;99.90
33699;DHT22;20032;52.436;13.312;2023-01-28T09:22:51;2.40;99.90
33699;DHT22;20032;52.436;13.312;2023-01-28T09:25:17;2.40;99.90
33699;DHT22;20032;52.436;13.312;2023-01-28T09:27:42;2.50;99.90
33699;DHT22;20032;52.436;13.312;2023-01-28T09:30:08;2.40;99.90
33699;DHT22;20032;52.436;13.312;2023-01-28T09:32:34;2.50;99.90
33699;DHT22;20032;52.436;13.312;2023-01-28T09:35:00;2.50;99.90
33699;DHT22;20032;52.436;13.312;2023-01-28T09:37:25;2.60;99.90
33699;DHT22;20032;52.436;13.312;2023-01-28T09:39:51;2.60;99.90
33699;DHT22;20032;52.436;13.312;2023-01-28T09:42:36;2.60;99.90
33699;DHT22;20032;52.436;13.312;2023-01-28T09:45:13;2.50;99.90
33699;DHT22;20032;52.436;13.312;2023-01-28T09:50:17;2.60;99.90
33699;DHT22;20032;52.436;13.312;2023-01-28T09:52:43;2.60;99.90
33699;DHT22;20032;52.436;13.312;2023-01-28T09:55:16;2.60;99.90
33699;DHT22;20032;52.436;13.312;2023-01-28T09:57:50;2.60;99.90
33699;DHT22;20032;52.436;13.312;2023-01-28T10:00:20;2.70;99.90
33699;DHT22;20032;52.436;13.312;2023-01-28T10:04:58;2.60;99.90
33699;DHT22;20032;52.436;13.312;2023-01-28T10:06:23;2.70;99.90
33699;DHT22;20032;52.436;13.312;2023-01-28T10:09:03;2.80;99.90
33699;DHT22;20032;52.436;13.312;2023-01-28T10:11:53;2.70;99.90
33699;DHT22;20032;52.436;13.312;2023-01-28T10:14:48;2.70;99.90
33699;DHT22;20032;52.436;13.312;2023-01-28T10:17:41;2.60;99.90
33699;DHT22;20032;52.436;13.312;2023-01-28T10:22:46;2.80;99.90
33699;DHT22;20032;52.436;13.312;2023-01-28T10:25:18;2.80;99.90
33699;DHT22;20032;52.436;13.312;2023-01-28T10:27:44;2.70;99.90
33699;DHT22;20032;52.436;13.312;2023-01-28T10:30:29;2.70;99.90
33699;DHT22;20032;52.436;13.312;2023-01-28T10:33:02;2.80;99.90
33699;DHT22;20032;52.436;13.312;2023-01-28T10:35:35;2.80;99.90
33699;DHT22;20032;52.436;13.312;2023-01-28T10:38:04;2.80;99.90
33699;DHT22;20032;52.436;13.312;2023-01-28T10:40:31;2.90;99.90
33699;DHT22;20032;52.436;13.312;2023-01-28T10:42:57;2.80;99.90
33699;DHT22;20032;52.436;13.312;2023-01-28T10:45:26;2.80;99.90
33699;DHT22;20032;52.436;13.312;2023-01-28T10:47:58;2.90;99.90
33699;DHT22;20032;52.436;13.312;2023-01-28T10:50:28;3.00;99.90
33699;DHT22;20032;52.436;13.312;2023-01-28T10:52:57;2.80;99.90
33699;DHT22;20032;52.436;13.312;2023-01-28T10:55:26;2.80;99.90
33699;DHT22;20032;52.436;13.312;2023-01-28T10:57:52;2.80;99.90
33699;DHT22;20032;52.436;13.312;2023-01-28T11:00:26;2.90;99.90
33699;DHT22;20032;52.436;13.312;2023-01-28T11:02:53;2.90;99.90
33699;DHT22;20032;52.436;13.312;2023-01-28T11:05:22;2.90;99.90
33699;DHT22;20032;52.436;13.312;2023-01-28T11:08:03;3.10;99.90
33699;DHT22;20032;52.436;13.312;2023-01-28T11:10:33;3.20;99.90
33699;DHT22;20032;52.436;13.312;2023-01-28T11:13:01;3.20;99.90
33699;DHT22;20032;52.436;13.312;2023-01-28T11:15:28;3.20;99.90
33699;DHT22;20032;52.436;13.312;2023-01-28T11:17:58;3.20;99.90
33699;DHT22;20032;52.436;13.312;2023-01-28T11:20:26;3.10;99.90
33699;DHT22;20032;52.436;13.312;2023-01-28T11:22:53;3.20;99.90
33699;DHT22;20032;52.436;13.312;2023-01-28T11:25:27;3.30;99.90
33699;DHT22;20032;52.436;13.312;2023-01-28T11:27:54;3.30;99.90
33699;DHT22;20032;52.436;13.312;2023-01-28T11:30:22;3.30;99.90
33699;DHT22;20032;52.436;13.312;2023-01-28T11:32:57;3.40;99.90
33699;DHT22;20032;52.436;13.312;2023-01-28T11:35:27;3.30;99.90
33699;DHT22;20032;52.436;13.312;2023-01-28T11:37:55;3.20;99.90
33699;DHT22;20032;52.436;13.312;2023-01-28T11:40:20;3.10;99.90
33699;DHT22;20032;52.436;13.312;2023-01-28T11:42:47;3.00;99.90
33699;DHT22;20032;52.436;13.312;2023-01-28T11:45:16;2.90;99.90
33699;DHT22;20032;52.436;13.312;2023-01-28T11:47:59;3.00;99.90
33699;DHT22;20032;52.436;13.312;2023-01-28T11:50:34;3.10;99.90
33699;DHT22;20032;52.436;13.312;2023-01-28T12:01:23;3.10;99.90
33699;DHT22;20032;52.436;13.312;2023-01-28T12:04:15;3.20;99.90
33699;DHT22;20032;52.436;13.312;2023-01-28T12:06:59;3.10;99.90
33699;DHT22;20032;52.436;13.312;2023-01-28T12:09:37;3.10;99.90
33699;DHT22;20032;52.436;13.312;2023-01-28T12:12:48;3.10;99.90
33699;DHT22;20032;52.436;13.312;2023-01-28T12:18:31;3.10;99.90
33699;DHT22;20032;52.436;13.312;2023-01-28T12:21:04;3.10;99.90
33699;DHT22;20032;52.436;13.312;2023-01-28T12:24:00;3.10;99.90
33699;DHT22;20032;52.436;13.312;2023-01-28T12:27:10;3.20;99.90
33699;DHT22;20032;52.436;13.312;2023-01-28T12:29:26;3.30;99.90
33699;DHT22;20032;52.436;13.312;2023-01-28T12:32:07;3.20;99.90
33699;DHT22;20032;52.436;13.312;2023-01-28T12:37:41;3.10;99.90
33699;DHT22;20032;52.436;13.312;2023-01-28T12:40:21;3.20;99.90
33699;DHT22;20032;52.436;13.312;2023-01-28T12:45:31;3.20;99.90
33699;DHT22;20032;52.436;13.312;2023-01-28T12:48:03;3.20;99.90
33699;DHT22;20032;52.436;13.312;2023-01-28T12:50:35;3.20;99.90
33699;DHT22;20032;52.436;13.312;2023-01-28T12:53:12;3.20;99.90
33699;DHT22;20032;52.436;13.312;2023-01-28T12:55:45;3.20;99.90
33699;DHT22;20032;52.436;13.312;2023-01-28T12:58:17;3.20;99.90
33699;DHT22;20032;52.436;13.312;2023-01-28T13:00:49;3.20;99.90
33699;DHT22;20032;52.436;13.312;2023-01-28T13:03:25;3.10;99.90
33699;DHT22;20032;52.436;13.312;2023-01-28T13:05:59;3.20;99.90
33699;DHT22;20032;52.436;13.312;2023-01-28T13:08:27;3.10;99.90
33699;DHT22;20032;52.436;13.312;2023-01-28T13:10:54;3.10;99.90
33699;DHT22;20032;52.436;13.312;2023-01-28T13:13:28;3.00;99.90
33699;DHT22;20032;52.436;13.312;2023-01-28T13:15:54;2.90;99.90
33699;DHT22;20032;52.436;13.312;2023-01-28T13:21:05;2.90;99.90
33699;DHT22;20032;52.436;13.312;2023-01-28T13:23:40;2.90;99.90
33699;DHT22;20032;52.436;13.312;2023-01-28T13:26:23;2.80;99.90
33699;DHT22;20032;52.436;13.312;2023-01-28T13:28:52;2.80;99.90
33699;DHT22;20032;52.436;13.312;2023-01-28T13:31:21;2.90;99.90
33699;DHT22;20032;52.436;13.312;2023-01-28T13:34:00;2.90;99.90
33699;DHT22;20032;52.436;13.312;2023-01-28T13:36:30;2.90;99.90
33699;DHT22;20032;52.436;13.312;2023-01-28T13:41:44;3.00;99.90
33699;DHT22;20032;52.436;13.312;2023-01-28T13:44:27;3.00;99.90
33699;DHT22;20032;52.436;13.312;2023-01-28T13:47:13;3.00;99.90
33699;DHT22;20032;52.436;13.312;2023-01-28T13:49:42;2.90;99.90
33699;DHT22;20032;52.436;13.312;2023-01-28T13:54:39;2.80;99.90
33699;DHT22;20032;52.436;13.312;2023-01-28T13:57:30;2.80;99.90
33699;DHT22;20032;52.436;13.312;2023-01-28T14:04:01;2.90;99.90
33699;DHT22;20032;52.436;13.312;2023-01-28T14:08:42;2.80;99.90
33699;DHT22;20032;52.436;13.312;2023-01-28T14:11:37;2.90;99.90
33699;DHT22;20032;52.436;13.312;2023-01-28T14:17:38;2.90;99.90
33699;DHT22;20032;52.436;13.312;2023-01-28T14:20:17;3.00;99.90
33699;DHT22;20032;52.436;13.312;2023-01-28T14:22:43;3.00;99.90
33699;DHT22;20032;52.436;13.312;2023-01-28T14:25:14;2.90;99.90
33699;DHT22;20032;52.436;13.312;2023-01-28T14:27:41;3.00;99.90
33699;DHT22;20032;52.436;13.312;2023-01-28T14:30:21;3.00;99.90
33699;DHT22;20032;52.436;13.312;2023-01-28T14:32:51;2.90;99.90
33699;DHT22;20032;52.436;13.312;2023-01-28T14:35:23;2.80;99.90
33699;DHT22;20032;52.436;13.312;2023-01-28T14:37:50;2.70;99.90
33699;DHT22;20032;52.436;13.312;2023-01-28T14:40:16;2.70;99.90
33699;DHT22;20032;52.436;13.312;2023-01-28T14:42:45;2.70;99.90
33699;DHT22;20032;52.436;13.312;2023-01-28T14:46:02;2.80;99.90
33699;DHT22;20032;52.436;13.312;2023-01-28T14:48:21;2.80;99.90
33699;DHT22;20032;52.436;13.312;2023-01-28T14:57:00;2.90;99.90
33699;DHT22;20032;52.436;13.312;2023-01-28T14:59:38;2.80;99.90
33699;DHT22;20032;52.436;13.312;2023-01-28T15:02:19;2.60;99.90
33699;DHT22;20032;52.436;13.312;2023-01-28T15:04:45;2.50;99.90
33699;DHT22;20032;52.436;13.312;2023-01-28T15:07:18;2.50;99.90
33699;DHT22;20032;52.436;13.312;2023-01-28T15:09:45;2.50;99.90
33699;DHT22;20032;52.436;13.312;2023-01-28T15:12:12;2.60;99.90
33699;DHT22;20032;52.436;13.312;2023-01-28T15:14:38;2.60;99.90
33699;DHT22;20032;52.436;13.312;2023-01-28T15:17:04;2.60;99.90
33699;DHT22;20032;52.436;13.312;2023-01-28T15:19:33;2.60;99.90
33699;DHT22;20032;52.436;13.312;2023-01-28T15:22:02;2.60;99.90
33699;DHT22;20032;52.436;13.312;2023-01-28T15:24:28;2.70;99.90
33699;DHT22;20032;52.436;13.312;2023-01-28T15:26:55;2.50;99.90
33699;DHT22;20032;52.436;13.312;2023-01-28T15:29:23;2.50;99.90
33699;DHT22;20032;52.436;13.312;2023-01-28T15:31:49;2.60;99.90
33699;DHT22;20032;52.436;13.312;2023-01-28T15:34:17;2.60;99.90
33699;DHT22;20032;52.436;13.312;2023-01-28T15:36:43;2.60;99.90
33699;DHT22;20032;52.436;13.312;2023-01-28T15:39:14;2.60;99.90
33699;DHT22;20032;52.436;13.312;2023-01-28T15:41:40;2.60;99.90
33699;DHT22;20032;52.436;13.312;2023-01-28T15:44:17;2.60;99.90
33699;DHT22;20032;52.436;13.312;2023-01-28T15:46:43;2.70;99.90
33699;DHT22;20032;52.436;13.312;2023-01-28T15:49:13;2.60;99.90
33699;DHT22;20032;52.436;13.312;2023-01-28T15:51:39;2.70;99.90
33699;DHT22;20032;52.436;13.312;2023-01-28T15:54:08;2.70;99.90
33699;DHT22;20032;52.436;13.312;2023-01-28T15:56:34;2.60;99.90
33699;DHT22;20032;52.436;13.312;2023-01-28T15:59:25;2.60;99.90
33699;DHT22;20032;52.436;13.312;2023-01-28T16:01:51;2.60;99.90
33699;DHT22;20032;52.436;13.312;2023-01-28T16:04:28;2.70;99.90
33699;DHT22;20032;52.436;13.312;2023-01-28T16:06:56;2.60;99.90
33699;DHT22;20032;52.436;13.312;2023-01-28T16:09:26;2.60;99.90
33699;DHT22;20032;52.436;13.312;2023-01-28T16:11:52;2.60;99.90
33699;DHT22;20032;52.436;13.312;2023-01-28T16:14:41;2.50;99.90
33699;DHT22;20032;52.436;13.312;2023-01-28T16:17:08;2.60;99.90
33699;DHT22;20032;52.436;13.312;2023-01-28T16:19:43;2.50;99.90
33699;DHT22;20032;52.436;13.312;2023-01-28T16:22:20;2.50;99.90
33699;DHT22;20032;52.436;13.312;2023-01-28T16:24:49;2.40;99.90
33699;DHT22;20032;52.436;13.312;2023-01-28T16:27:19;2.40;99.90
33699;DHT22;20032;52.436;13.312;2023-01-28T16:29:44;2.40;99.90
33699;DHT22;20032;52.436;13.312;2023-01-28T16:32:27;2.40;99.90
33699;DHT22;20032;52.436;13.312;2023-01-28T16:34:53;2.30;99.90
33699;DHT22;20032;52.436;13.312;2023-01-28T16:37:18;2.30;99.90
33699;DHT22;20032;52.436;13.312;2023-01-28T16:39:43;2.30;99.90
33699;DHT22;20032;52.436;13.312;2023-01-28T16:42:09;2.30;99.90